createdAt,value
2023-03-03T00:01:33.528Z,4.20
2023-03-03T00:04:01.891Z,3.70
2023-03-03T00:06:30.751Z,3.70
2023-03-03T00:09:00.159Z,3.97
2023-03-03T00:11:29.115Z,3.87
2023-03-03T00:13:58.400Z,3.17
2023-03-03T00:16:30.523Z,3.57
2023-03-03T00:18:59.941Z,5.80
2023-03-03T00:21:31.734Z,3.50
2023-03-03T00:24:18.159Z,5.20
2023-03-03T00:26:48.091Z,4.53
2023-03-03T00:29:30.724Z,4.30
2023-03-03T00:32:19.549Z,4.10
2023-03-03T00:34:48.291Z,4.00
2023-03-03T00:37:32.456Z,4.23
2023-03-03T00:40:24.868Z,5.37
2023-03-03T00:42:55.464Z,3.70
2023-03-03T00:45:40.131Z,4.60
2023-03-03T00:48:27.696Z,4.60
2023-03-03T00:50:57.325Z,3.60
2023-03-03T00:53:28.581Z,4.93
2023-03-03T00:55:58.964Z,4.90
2023-03-03T00:58:27.510Z,3.60
2023-03-03T01:00:58.816Z,4.57
2023-03-03T01:03:28.309Z,3.87
2023-03-03T01:05:56.501Z,3.53
2023-03-03T01:08:24.698Z,4.20
2023-03-03T01:10:54.844Z,4.40
2023-03-03T01:13:27.661Z,4.23
2023-03-03T01:15:56.009Z,3.43
2023-03-03T01:18:24.023Z,5.20
2023-03-03T01:20:52.124Z,5.07
2023-03-03T01:23:20.169Z,5.30
2023-03-03T01:25:48.272Z,4.57
2023-03-03T01:28:16.347Z,3.53
2023-03-03T01:30:45.759Z,4.10
2023-03-03T01:33:13.819Z,5.30
2023-03-03T01:35:45.843Z,4.50
2023-03-03T01:38:13.897Z,4.30
2023-03-03T01:40:42.565Z,4.63
2023-03-03T01:43:14.114Z,4.90
2023-03-03T01:46:35.421Z,5.30
2023-03-03T01:49:08.810Z,5.00
2023-03-03T01:51:43.585Z,5.50
2023-03-03T01:54:18.774Z,6.17
2023-03-03T01:56:47.175Z,4.60
2023-03-03T01:59:19.967Z,6.30
2023-03-03T02:01:50.649Z,6.27
2023-03-03T02:04:21.948Z,5.00
2023-03-03T02:06:58.078Z,5.60
2023-03-03T02:09:34.196Z,5.37
2023-03-03T02:12:09.266Z,5.23
2023-03-03T02:14:37.300Z,5.40
2023-03-03T02:17:06.937Z,5.70
2023-03-03T02:19:44.148Z,5.70
2023-03-03T02:22:13.649Z,5.47
2023-03-03T02:24:47.834Z,5.27
2023-03-03T02:27:17.167Z,6.97
2023-03-03T02:29:45.134Z,6.73
2023-03-03T02:32:13.356Z,6.17
2023-03-03T02:34:53.176Z,6.47
2023-03-03T02:37:21.745Z,6.43
2023-03-03T02:39:49.717Z,6.03
2023-03-03T02:42:24.069Z,5.93
2023-03-03T02:44:52.192Z,6.30
2023-03-03T02:47:20.264Z,7.47
2023-03-03T02:49:48.258Z,7.70
2023-03-03T02:52:18.617Z,6.30
2023-03-03T02:54:46.610Z,6.17
2023-03-03T02:57:14.584Z,6.17
2023-03-03T02:59:43.926Z,4.40
2023-03-03T03:02:12.390Z,7.63
2023-03-03T03:04:40.528Z,5.93
2023-03-03T03:07:08.528Z,6.27
2023-03-03T03:09:36.546Z,7.10
2023-03-03T03:12:05.273Z,6.47
2023-03-03T03:14:33.368Z,5.83
2023-03-03T03:17:02.689Z,7.00
2023-03-03T03:19:31.407Z,7.67
2023-03-03T03:21:59.511Z,8.37
2023-03-03T03:24:27.507Z,6.87
2023-03-03T03:26:55.518Z,7.13
2023-03-03T03:29:23.490Z,7.40
2023-03-03T03:31:51.489Z,7.40
2023-03-03T03:34:20.790Z,7.70
2023-03-03T03:36:48.810Z,6.10
2023-03-03T03:39:16.835Z,5.33
2023-03-03T03:41:44.834Z,6.20
2023-03-03T03:44:12.773Z,8.00
2023-03-03T03:46:40.749Z,6.93
2023-03-03T03:49:08.740Z,6.60
2023-03-03T03:51:41.210Z,6.87
2023-03-03T03:54:09.572Z,7.83
2023-03-03T03:56:37.539Z,6.83
2023-03-03T03:59:07.190Z,7.60
2023-03-03T04:01:35.351Z,8.07
2023-03-03T04:04:04.047Z,7.00
2023-03-03T04:06:32.438Z,7.17
2023-03-03T04:09:01.774Z,7.40
2023-03-03T04:11:29.736Z,7.07
2023-03-03T04:13:57.766Z,7.90
2023-03-03T04:16:25.933Z,8.30
2023-03-03T04:18:53.958Z,7.73
2023-03-03T04:21:21.965Z,7.13
2023-03-03T04:23:49.959Z,9.00
2023-03-03T04:26:19.354Z,7.90
2023-03-03T04:28:47.519Z,8.13
2023-03-03T04:31:15.771Z,8.63
2023-03-03T04:33:44.097Z,7.80
2023-03-03T04:36:12.139Z,8.87
2023-03-03T04:38:40.214Z,9.57
2023-03-03T04:41:08.208Z,8.70
2023-03-03T04:43:39.567Z,9.00
2023-03-03T04:46:10.612Z,9.60
2023-03-03T04:48:39.217Z,9.80
2023-03-03T04:51:07.473Z,10.10
2023-03-03T04:53:36.651Z,9.27
2023-03-03T04:56:04.913Z,8.03
2023-03-03T04:58:32.997Z,8.93
2023-03-03T05:01:02.354Z,10.23
2023-03-03T05:03:30.341Z,8.97
2023-03-03T05:05:58.484Z,7.97
2023-03-03T05:08:26.578Z,10.10
2023-03-03T05:10:55.620Z,11.33
2023-03-03T05:13:23.933Z,9.60
2023-03-03T05:15:53.145Z,10.00
2023-03-03T05:18:23.475Z,8.90
2023-03-03T05:20:52.567Z,9.20
2023-03-03T05:23:21.355Z,9.40
2023-03-03T05:25:50.436Z,10.00
2023-03-03T05:28:19.201Z,10.00
2023-03-03T05:30:47.967Z,11.20
2023-03-03T05:33:18.122Z,9.43
2023-03-03T05:35:47.655Z,9.50
2023-03-03T05:38:15.719Z,9.87
2023-03-03T05:40:43.883Z,9.60
2023-03-03T05:43:11.944Z,10.50
2023-03-03T05:45:39.929Z,10.10
2023-03-03T05:48:10.097Z,10.17
2023-03-03T05:50:39.072Z,9.50
2023-03-03T05:53:08.477Z,10.10
2023-03-03T05:55:36.493Z,9.63
2023-03-03T05:58:04.547Z,12.20
2023-03-03T06:00:32.529Z,10.30
2023-03-03T06:03:00.630Z,9.77
2023-03-03T06:05:28.654Z,10.20
2023-03-03T06:07:56.635Z,11.33
2023-03-03T06:10:25.986Z,9.43
2023-03-03T06:12:55.069Z,11.83
2023-03-03T06:15:23.256Z,10.40
2023-03-03T06:17:51.777Z,10.63
2023-03-03T06:20:20.041Z,10.50
2023-03-03T06:22:48.028Z,10.10
2023-03-03T06:25:16.096Z,10.03
2023-03-03T06:27:45.447Z,11.60
2023-03-03T06:30:14.777Z,10.50
2023-03-03T06:32:42.893Z,9.33
2023-03-03T06:35:11.240Z,12.17
2023-03-03T06:37:39.272Z,11.17
2023-03-03T06:40:09.589Z,11.10
2023-03-03T06:42:37.716Z,10.27
2023-03-03T06:45:08.439Z,10.40
2023-03-03T06:47:36.445Z,11.77
2023-03-03T06:50:04.736Z,10.13
2023-03-03T06:52:32.746Z,10.73
2023-03-03T06:55:03.616Z,10.77
2023-03-03T06:57:34.248Z,10.23
2023-03-03T07:00:21.431Z,11.60
2023-03-03T07:02:55.281Z,11.50
2023-03-03T07:05:28.710Z,11.00
2023-03-03T07:07:59.856Z,10.70
2023-03-03T07:10:30.572Z,11.57
2023-03-03T07:13:15.625Z,10.20
2023-03-03T07:15:45.677Z,10.30
2023-03-03T07:18:29.870Z,12.53
2023-03-03T07:20:57.862Z,11.27
2023-03-03T07:23:29.137Z,11.10
2023-03-03T07:25:57.206Z,10.40
2023-03-03T07:28:28.589Z,12.57
2023-03-03T07:30:59.073Z,12.60
2023-03-03T07:33:30.285Z,11.27
2023-03-03T07:36:00.064Z,10.67
2023-03-03T07:38:35.802Z,10.57
2023-03-03T07:41:06.850Z,10.30
2023-03-03T07:43:39.813Z,12.10
2023-03-03T07:46:30.267Z,11.50
2023-03-03T07:48:59.858Z,10.97
2023-03-03T07:51:31.719Z,12.40
2023-03-03T07:54:19.245Z,12.47
2023-03-03T07:56:48.979Z,11.73
2023-03-03T07:59:23.232Z,11.13
2023-03-03T08:01:58.193Z,12.07
2023-03-03T08:04:35.563Z,13.13
2023-03-03T08:07:04.207Z,14.50
2023-03-03T08:09:42.401Z,12.90
2023-03-03T08:12:33.104Z,16.57
2023-03-03T08:15:18.019Z,15.67
2023-03-03T08:17:48.896Z,14.80
2023-03-03T08:20:46.422Z,18.20
2023-03-03T08:23:16.816Z,13.10
2023-03-03T08:25:45.801Z,26.00
2023-03-03T08:28:14.355Z,15.13
2023-03-03T08:30:43.967Z,16.20
2023-03-03T08:33:14.244Z,12.83
2023-03-03T08:35:43.084Z,12.83
2023-03-03T08:38:12.203Z,14.53
2023-03-03T08:40:40.457Z,14.90
2023-03-03T08:43:08.589Z,14.17
2023-03-03T08:45:37.789Z,15.87
2023-03-03T08:48:06.561Z,14.40
2023-03-03T08:50:36.234Z,14.60
2023-03-03T08:53:04.415Z,12.43
2023-03-03T08:55:33.056Z,13.10
2023-03-03T08:58:02.885Z,12.83
2023-03-03T09:00:30.973Z,15.37
2023-03-03T09:02:59.040Z,15.43
2023-03-03T09:05:27.688Z,14.57
2023-03-03T09:07:57.309Z,14.67
2023-03-03T09:10:30.844Z,14.50
2023-03-03T09:13:03.171Z,16.00
2023-03-03T09:15:33.460Z,15.30
2023-03-03T09:18:15.930Z,15.60
2023-03-03T09:20:47.128Z,16.67
2023-03-03T09:23:37.504Z,16.20
2023-03-03T09:26:31.290Z,15.20
2023-03-03T09:29:20.431Z,16.47
2023-03-03T09:31:52.645Z,14.70
2023-03-03T09:34:25.573Z,15.00
2023-03-03T09:36:55.529Z,17.20
2023-03-03T09:39:27.232Z,16.50
2023-03-03T09:42:18.936Z,14.70
2023-03-03T09:45:34.458Z,16.33
2023-03-03T09:48:43.838Z,15.43
2023-03-03T09:51:43.126Z,15.10
2023-03-03T09:54:29.119Z,15.40
2023-03-03T09:57:06.515Z,15.27
2023-03-03T10:00:15.853Z,16.47
2023-03-03T10:03:12.440Z,15.27
2023-03-03T10:05:50.755Z,15.47
2023-03-03T10:08:36.096Z,14.67
2023-03-03T10:11:18.125Z,13.97
2023-03-03T10:14:02.841Z,14.00
2023-03-03T10:16:56.438Z,14.77
2023-03-03T10:19:38.420Z,13.60
2023-03-03T10:22:21.478Z,15.10
2023-03-03T10:25:04.811Z,12.87
2023-03-03T10:27:57.183Z,13.33
2023-03-03T10:30:46.221Z,12.60
2023-03-03T10:33:31.427Z,12.57
2023-03-03T10:36:21.545Z,13.80
2023-03-03T10:39:04.012Z,10.70
2023-03-03T10:42:04.943Z,11.73
2023-03-03T10:45:03.241Z,10.93
2023-03-03T10:47:54.761Z,12.70
2023-03-03T10:50:29.190Z,11.67
2023-03-03T10:53:16.931Z,11.60
2023-03-03T10:55:59.010Z,10.80
2023-03-03T10:59:02.423Z,12.47
2023-03-03T11:01:47.058Z,10.27
2023-03-03T11:04:38.307Z,10.37
2023-03-03T11:07:14.591Z,13.27
2023-03-03T11:09:57.526Z,10.70
2023-03-03T11:12:38.654Z,10.83
2023-03-03T11:15:35.075Z,9.70
2023-03-03T11:18:25.888Z,9.40
2023-03-03T11:21:04.287Z,9.47
2023-03-03T11:24:03.626Z,10.90
2023-03-03T11:26:51.370Z,10.50
2023-03-03T11:29:35.087Z,10.60
2023-03-03T11:32:21.089Z,10.90
2023-03-03T11:35:16.097Z,10.27
2023-03-03T11:37:58.267Z,10.20
2023-03-03T11:40:29.839Z,9.70
2023-03-03T11:43:05.332Z,9.03
2023-03-03T11:45:41.595Z,11.60
2023-03-03T11:48:18.990Z,10.50
2023-03-03T11:50:58.530Z,10.03
2023-03-03T11:53:42.016Z,9.20
2023-03-03T11:56:22.436Z,9.60
2023-03-03T11:59:02.114Z,10.33
2023-03-03T12:01:37.847Z,9.33
2023-03-03T12:04:10.931Z,9.23
2023-03-03T12:07:12.900Z,9.50
2023-03-03T12:09:56.630Z,9.00
2023-03-03T12:12:28.973Z,10.00
2023-03-03T12:15:12.155Z,8.63
2023-03-03T12:18:05.625Z,9.23
2023-03-03T12:20:45.837Z,8.70
2023-03-03T12:23:42.947Z,8.80
2023-03-03T12:26:17.804Z,9.47
2023-03-03T12:28:53.439Z,9.90
2023-03-03T12:31:50.039Z,9.30
2023-03-03T12:34:25.578Z,9.47
2023-03-03T12:37:24.612Z,9.83
2023-03-03T12:40:04.922Z,9.57
2023-03-03T12:42:49.460Z,7.87
2023-03-03T12:45:37.383Z,9.33
2023-03-03T12:48:17.010Z,9.07
2023-03-03T12:50:59.084Z,8.93
2023-03-03T12:53:41.514Z,8.60
2023-03-03T12:56:14.607Z,9.33
2023-03-03T12:58:55.624Z,9.80
2023-03-03T13:01:38.080Z,19.40
2023-03-03T13:04:13.425Z,11.07
2023-03-03T13:06:49.406Z,9.80
2023-03-03T13:09:31.897Z,9.20
2023-03-03T13:12:28.807Z,9.70
2023-03-03T13:15:08.014Z,8.30
2023-03-03T13:17:49.411Z,9.10
2023-03-03T13:20:28.305Z,8.57
2023-03-03T13:23:05.844Z,9.10
2023-03-03T13:25:45.524Z,8.87
2023-03-03T13:28:27.232Z,8.10
2023-03-03T13:31:03.344Z,8.00
2023-03-03T13:33:36.877Z,8.80
2023-03-03T13:36:10.101Z,9.03
2023-03-03T13:38:42.978Z,8.10
2023-03-03T13:41:23.484Z,6.57
2023-03-03T13:43:58.630Z,6.30
2023-03-03T13:46:39.957Z,7.97
2023-03-03T13:49:37.149Z,7.87
2023-03-03T13:52:09.028Z,7.00
2023-03-03T13:54:55.682Z,8.20
2023-03-03T13:57:51.925Z,7.80
2023-03-03T14:00:31.924Z,7.27
2023-03-03T14:03:30.359Z,5.70
2023-03-03T14:06:03.814Z,6.87
2023-03-03T14:08:58.244Z,5.50
2023-03-03T14:11:34.378Z,5.80
2023-03-03T14:14:17.860Z,5.40
2023-03-03T14:16:54.164Z,4.60
2023-03-03T14:19:29.493Z,4.67
2023-03-03T14:22:13.415Z,5.10
2023-03-03T14:25:03.008Z,4.17
2023-03-03T14:27:37.571Z,5.70
2023-03-03T14:30:29.925Z,4.93
2023-03-03T14:33:15.967Z,4.13
2023-03-03T14:35:45.806Z,4.57
2023-03-03T14:38:17.217Z,4.73
2023-03-03T14:40:47.319Z,4.47
2023-03-03T14:43:26.157Z,5.23
2023-03-03T14:45:55.158Z,3.63
2023-03-03T14:48:27.088Z,3.50
2023-03-03T14:51:04.329Z,3.20
2023-03-03T14:53:38.957Z,3.40
2023-03-03T14:56:22.458Z,4.37
2023-03-03T14:58:51.058Z,3.13
2023-03-03T15:01:31.390Z,3.60
2023-03-03T15:04:05.931Z,4.00
2023-03-03T15:06:42.862Z,3.10
2023-03-03T15:09:36.616Z,3.10
2023-03-03T15:12:19.962Z,3.03
2023-03-03T15:14:50.225Z,2.50
2023-03-03T15:17:28.087Z,2.67
2023-03-03T15:20:14.570Z,3.20
2023-03-03T15:22:49.781Z,3.27
2023-03-03T15:25:41.945Z,3.07
2023-03-03T15:28:28.933Z,3.17
2023-03-03T15:31:05.533Z,2.30
2023-03-03T15:33:40.241Z,3.00
2023-03-03T15:36:24.304Z,2.77
2023-03-03T15:39:04.780Z,3.10
2023-03-03T15:41:42.269Z,2.43
2023-03-03T15:44:22.357Z,3.40
2023-03-03T15:47:05.975Z,2.33
2023-03-03T15:49:57.753Z,2.73
2023-03-03T15:52:44.828Z,2.90
2023-03-03T15:55:44.199Z,2.83
2023-03-03T15:58:37.282Z,2.47
2023-03-03T16:01:13.481Z,3.07
2023-03-03T16:03:48.355Z,2.70
2023-03-03T16:06:23.445Z,3.07
2023-03-03T16:09:00.090Z,2.63
2023-03-03T16:11:36.116Z,3.17
2023-03-03T16:14:31.846Z,3.30
2023-03-03T16:17:14.252Z,3.27
2023-03-03T16:19:50.709Z,2.70
2023-03-03T16:22:40.604Z,3.20
2023-03-03T16:25:32.762Z,2.90
2023-03-03T16:28:07.267Z,2.93
2023-03-03T16:30:40.640Z,2.80
2023-03-03T16:33:20.590Z,3.10
2023-03-03T16:36:00.554Z,2.57
2023-03-03T16:38:37.761Z,3.27
2023-03-03T16:41:12.143Z,2.37
2023-03-03T16:44:03.642Z,3.03
2023-03-03T16:46:35.819Z,2.80
2023-03-03T16:49:14.445Z,3.90
2023-03-03T16:51:50.544Z,2.47
2023-03-03T16:54:32.091Z,3.53
2023-03-03T16:57:12.548Z,3.63
2023-03-03T16:59:58.868Z,8.00
2023-03-03T17:02:49.549Z,4.40
2023-03-03T17:05:30.910Z,4.53
2023-03-03T17:08:31.692Z,4.90
2023-03-03T17:11:09.328Z,6.00
2023-03-03T17:14:19.324Z,7.07
2023-03-03T17:16:58.294Z,6.23
2023-03-03T17:19:46.137Z,7.43
2023-03-03T17:22:24.293Z,7.07
2023-03-03T17:25:05.787Z,6.93
2023-03-03T17:27:51.006Z,8.87
2023-03-03T17:30:28.615Z,8.07
2023-03-03T17:33:15.070Z,6.90
2023-03-03T17:36:20.299Z,8.80
2023-03-03T17:39:03.309Z,7.70
2023-03-03T17:41:37.712Z,10.27
2023-03-03T17:44:12.186Z,9.00
2023-03-03T17:46:47.149Z,11.52
2023-03-03T17:49:47.953Z,9.40
2023-03-03T17:52:49.926Z,8.30
2023-03-03T17:55:41.847Z,8.80
2023-03-03T17:58:42.682Z,8.97
2023-03-03T18:01:22.665Z,8.90
2023-03-03T18:04:35.454Z,10.03
2023-03-03T18:07:26.609Z,10.87
2023-03-03T18:10:26.487Z,9.67
2023-03-03T18:13:03.858Z,13.47
2023-03-03T18:16:01.791Z,11.60
2023-03-03T18:19:01.903Z,11.70
2023-03-03T18:21:38.740Z,10.70
2023-03-03T18:24:31.755Z,10.77
2023-03-03T18:27:30.076Z,12.13
2023-03-03T18:30:35.323Z,12.70
2023-03-03T18:33:13.469Z,11.00
2023-03-03T18:35:43.820Z,11.20
2023-03-03T18:38:36.642Z,10.60
2023-03-03T18:41:06.612Z,10.47
2023-03-03T18:44:00.270Z,13.03
2023-03-03T18:47:01.601Z,11.23
2023-03-03T18:50:15.043Z,11.37
2023-03-03T18:53:30.847Z,13.47
2023-03-03T18:56:00.740Z,12.67
2023-03-03T18:58:40.808Z,12.30
2023-03-03T19:01:41.663Z,11.63
2023-03-03T19:04:24.663Z,12.50
2023-03-03T19:07:17.050Z,12.00
2023-03-03T19:09:56.674Z,12.17
2023-03-03T19:12:52.775Z,11.20
2023-03-03T19:15:59.662Z,11.90
2023-03-03T19:18:29.798Z,16.37
2023-03-03T19:21:01.228Z,13.20
2023-03-03T19:23:54.639Z,11.67
2023-03-03T19:26:50.251Z,14.30
2023-03-03T19:29:56.455Z,12.70
2023-03-03T19:32:43.967Z,13.27
2023-03-03T19:35:29.274Z,13.17
2023-03-03T19:38:12.490Z,12.87
2023-03-03T19:40:51.890Z,13.27
2023-03-03T19:43:35.807Z,12.73
2023-03-03T19:46:22.836Z,13.83
2023-03-03T19:49:02.614Z,15.70
2023-03-03T19:51:42.140Z,13.97
2023-03-03T19:54:25.578Z,13.80
2023-03-03T19:56:56.197Z,16.10
2023-03-03T19:59:36.062Z,12.63
2023-03-03T20:02:27.719Z,12.50
2023-03-03T20:05:15.266Z,13.60
2023-03-03T20:07:52.164Z,13.90
2023-03-03T20:10:42.136Z,13.20
2023-03-03T20:13:47.954Z,13.13
2023-03-03T20:16:29.057Z,15.50
2023-03-03T20:19:22.842Z,12.90
2023-03-03T20:22:05.409Z,15.00
2023-03-03T20:25:04.142Z,13.83
2023-03-03T20:27:46.019Z,14.53
2023-03-03T20:30:28.668Z,13.97
2023-03-03T20:33:15.926Z,16.10
2023-03-03T20:35:56.537Z,13.50
2023-03-03T20:38:31.357Z,14.23
2023-03-03T20:41:14.618Z,13.53
2023-03-03T20:44:00.678Z,13.77
2023-03-03T20:46:41.492Z,15.40
2023-03-03T20:49:31.703Z,13.57
2023-03-03T20:52:07.399Z,14.67
2023-03-03T20:54:46.174Z,14.47
2023-03-03T20:57:21.167Z,12.87
2023-03-03T20:59:57.667Z,15.77
2023-03-03T21:02:34.046Z,15.00
2023-03-03T21:05:14.341Z,14.60
2023-03-03T21:07:54.233Z,15.37
2023-03-03T21:10:24.888Z,13.57
2023-03-03T21:12:54.375Z,15.10
2023-03-03T21:15:30.597Z,17.07
2023-03-03T21:18:00.165Z,15.23
2023-03-03T21:20:32.434Z,13.87
2023-03-03T21:23:02.640Z,14.73
2023-03-03T21:26:00.714Z,14.90
2023-03-03T21:28:29.958Z,15.17
2023-03-03T21:31:16.739Z,15.80
2023-03-03T21:33:49.511Z,14.07
2023-03-03T21:36:23.219Z,14.90
2023-03-03T21:38:53.521Z,15.80
2023-03-03T21:41:22.071Z,14.70
2023-03-03T21:43:52.422Z,14.67
2023-03-03T21:46:22.995Z,13.80
2023-03-03T21:48:51.600Z,17.27
2023-03-03T21:51:21.438Z,14.40
2023-03-03T21:53:49.454Z,14.60
2023-03-03T21:56:17.456Z,14.80
2023-03-03T21:58:45.507Z,17.60
2023-03-03T22:01:13.588Z,15.03
2023-03-03T22:03:44.423Z,15.97
2023-03-03T22:06:12.350Z,13.47
2023-03-03T22:08:41.761Z,15.30
2023-03-03T22:11:09.748Z,14.97
2023-03-03T22:13:39.886Z,15.00
2023-03-03T22:16:09.093Z,13.40
2023-03-03T22:18:37.157Z,13.07
2023-03-03T22:21:06.422Z,16.27
2023-03-03T22:23:34.471Z,14.70
2023-03-03T22:26:04.006Z,14.27
2023-03-03T22:28:32.065Z,14.70
2023-03-03T22:31:00.113Z,14.30
2023-03-03T22:33:28.242Z,13.93
2023-03-03T22:35:56.259Z,16.93
2023-03-03T22:38:25.041Z,15.63
2023-03-03T22:40:54.240Z,15.07
2023-03-03T22:43:25.590Z,14.07
2023-03-03T22:45:53.657Z,16.97
2023-03-03T22:48:23.104Z,12.83
2023-03-03T22:50:52.696Z,14.70
2023-03-03T22:53:21.436Z,14.70
2023-03-03T22:55:49.611Z,12.30
2023-03-03T22:58:19.877Z,13.43
2023-03-03T23:00:49.701Z,14.43
2023-03-03T23:03:18.118Z,13.37
2023-03-03T23:05:46.129Z,15.20
2023-03-03T23:08:17.347Z,14.17
2023-03-03T23:10:45.607Z,14.17
2023-03-03T23:13:13.932Z,12.70
2023-03-03T23:15:41.937Z,14.57
2023-03-03T23:18:11.772Z,14.00
2023-03-03T23:20:42.281Z,12.30
2023-03-03T23:23:10.264Z,14.17
2023-03-03T23:25:38.281Z,13.90
2023-03-03T23:28:07.030Z,14.77
2023-03-03T23:30:35.183Z,13.53
2023-03-03T23:33:03.234Z,16.80
2023-03-03T23:35:32.605Z,14.27
2023-03-03T23:38:00.684Z,14.13
2023-03-03T23:40:28.965Z,14.33
2023-03-03T23:42:56.981Z,15.40
2023-03-03T23:45:25.004Z,13.30
2023-03-03T23:47:53.008Z,12.93
2023-03-03T23:50:21.344Z,13.57
2023-03-03T23:52:50.749Z,14.90
2023-03-03T23:55:18.917Z,13.37
2023-03-03T23:57:46.915Z,13.00
